createdAt,value
2017-10-25T00:01:10.001Z,99741.67
2017-10-25T00:02:46.617Z,99697.73
2017-10-25T00:04:26.773Z,99626.94
2017-10-25T00:06:05.145Z,99528.67
2017-10-25T00:07:41.640Z,99508.38
2017-10-25T00:09:18.125Z,99569.80
2017-10-25T00:10:55.671Z,99650.51
2017-10-25T00:12:32.208Z,99746.51
2017-10-25T00:14:09.501Z,99811.73
2017-10-25T00:15:47.023Z,99830.40
2017-10-25T00:17:23.791Z,99834.28
2017-10-25T00:19:00.987Z,99847.13
2017-10-25T00:20:37.408Z,99768.70
2017-10-25T00:22:14.582Z,99787.03
2017-10-25T00:23:52.050Z,99819.30
2017-10-25T00:25:30.969Z,99871.17
2017-10-25T00:27:15.118Z,99888.81
2017-10-25T00:28:57.317Z,99832.18
2017-10-25T00:30:34.459Z,99728.80
2017-10-25T00:32:12.395Z,99704.47
2017-10-25T00:33:49.866Z,99745.68
2017-10-25T00:35:31.868Z,99695.63
2017-10-25T00:37:12.487Z,99616.81
2017-10-25T00:38:50.008Z,99566.84
2017-10-25T00:40:32.683Z,99621.68
2017-10-25T00:42:10.308Z,99735.94
2017-10-25T00:43:48.968Z,99760.27
2017-10-25T00:45:31.510Z,99723.52
2017-10-25T00:47:09.216Z,99693.84
2017-10-25T00:48:48.502Z,99655.86
2017-10-25T00:50:29.089Z,99618.16
2017-10-25T00:52:06.645Z,99537.19
2017-10-25T00:53:49.476Z,99577.05
2017-10-25T00:55:30.671Z,99634.07
2017-10-25T00:57:10.973Z,99668.22
2017-10-25T00:58:48.399Z,99639.86
2017-10-25T01:00:31.468Z,99631.46
2017-10-25T01:02:11.405Z,99515.02
2017-10-25T01:03:48.345Z,99451.34
2017-10-25T01:05:25.876Z,99505.84
2017-10-25T01:07:03.506Z,99508.38
2017-10-25T01:08:43.327Z,99504.50
2017-10-25T01:10:25.813Z,99493.28
2017-10-25T01:12:08.328Z,99497.71
2017-10-25T01:13:45.585Z,99481.34
2017-10-25T01:15:24.880Z,99455.70
2017-10-25T01:17:03.516Z,99473.94
2017-10-25T01:18:40.005Z,99396.55
2017-10-25T01:21:51.142Z,99469.90
2017-10-25T01:23:29.858Z,99540.76
2017-10-25T01:25:08.195Z,99585.41
2017-10-25T01:26:50.734Z,99606.59
2017-10-25T01:28:29.869Z,99592.45
2017-10-25T01:30:06.613Z,99617.33
2017-10-25T01:31:44.135Z,99562.02
2017-10-25T01:33:21.042Z,99441.70
2017-10-25T01:34:58.860Z,99542.54
2017-10-25T01:36:35.544Z,99642.12
2017-10-25T01:38:16.251Z,99668.27
2017-10-25T01:39:56.314Z,99721.83
2017-10-25T01:41:34.789Z,99735.62
2017-10-25T01:43:11.428Z,99785.72
2017-10-25T01:44:50.484Z,99797.66
2017-10-25T01:46:29.722Z,99833.97
2017-10-25T01:48:08.145Z,99872.99
2017-10-25T01:50:02.376Z,99887.67
2017-10-25T01:51:42.089Z,99754.20
2017-10-25T01:53:18.978Z,99707.68
2017-10-25T01:54:56.263Z,99743.59
2017-10-25T01:56:33.551Z,99787.98
2017-10-25T01:58:10.147Z,99755.98
2017-10-25T01:59:46.947Z,99808.84
2017-10-25T02:01:29.790Z,99855.74
2017-10-25T02:03:08.400Z,99838.58
2017-10-25T02:04:46.083Z,99791.16
2017-10-25T02:06:24.660Z,99868.67
2017-10-25T02:08:01.616Z,99793.38
2017-10-25T02:09:44.844Z,99803.58
2017-10-25T02:11:21.954Z,99903.22
2017-10-25T02:12:58.938Z,99980.87
2017-10-25T02:14:35.609Z,99969.36
2017-10-25T02:16:12.827Z,100041.27
2017-10-25T02:17:49.790Z,100026.15
2017-10-25T02:19:29.646Z,99960.95
2017-10-25T02:21:06.232Z,99920.55
2017-10-25T02:22:44.695Z,99974.20
2017-10-25T02:24:29.211Z,100035.08
2017-10-25T02:26:06.924Z,100027.94
2017-10-25T02:27:44.921Z,99884.18
2017-10-25T02:29:21.974Z,99867.32
2017-10-25T02:30:58.944Z,99890.84
2017-10-25T02:32:35.545Z,99894.34
2017-10-25T02:34:11.872Z,99859.31
2017-10-25T02:35:48.914Z,99791.59
2017-10-25T02:37:25.469Z,99819.59
2017-10-25T02:39:02.419Z,99862.45
2017-10-25T02:40:38.827Z,99905.48
2017-10-25T02:42:15.220Z,99968.45
2017-10-25T02:43:51.599Z,99963.61
2017-10-25T02:45:30.249Z,99924.92
2017-10-25T02:47:06.679Z,99863.31
2017-10-25T02:48:43.125Z,99864.27
2017-10-25T02:50:20.421Z,99876.69
2017-10-25T02:51:58.399Z,99906.80
2017-10-25T02:53:34.747Z,99896.63
2017-10-25T02:55:11.172Z,99921.83
2017-10-25T02:56:48.473Z,99906.80
2017-10-25T02:58:25.150Z,99888.63
2017-10-25T03:00:01.706Z,99876.17
2017-10-25T03:01:38.949Z,99877.13
2017-10-25T03:03:16.048Z,99920.95
2017-10-25T03:04:52.655Z,99991.98
2017-10-25T03:06:30.453Z,99990.67
2017-10-25T03:08:11.081Z,99886.02
2017-10-25T03:09:47.666Z,99851.11
2017-10-25T03:11:24.731Z,99813.84
2017-10-25T03:13:01.240Z,99848.89
2017-10-25T03:14:38.409Z,99890.10
2017-10-25T03:16:15.129Z,99827.95
2017-10-25T03:17:51.917Z,99800.56
2017-10-25T03:19:31.270Z,99908.19
2017-10-25T03:21:08.687Z,100029.41
2017-10-25T03:22:45.303Z,99966.30
2017-10-25T03:24:22.724Z,99949.84
2017-10-25T03:26:00.353Z,99981.39
2017-10-25T03:27:36.737Z,100020.91
2017-10-25T03:29:13.196Z,99987.09
2017-10-25T03:30:50.082Z,99951.19
2017-10-25T03:32:26.452Z,99872.20
2017-10-25T03:34:02.909Z,99870.45
2017-10-25T03:35:39.402Z,99838.14
2017-10-25T03:37:17.338Z,99811.02
2017-10-25T03:38:55.750Z,99745.86
2017-10-25T03:40:32.160Z,99733.53
2017-10-25T03:42:09.485Z,99750.25
2017-10-25T03:43:46.229Z,99711.77
2017-10-25T03:45:25.085Z,99650.69
2017-10-25T03:47:01.578Z,99584.06
2017-10-25T03:48:38.025Z,99567.84
2017-10-25T03:50:14.652Z,99567.80
2017-10-25T03:51:52.089Z,99601.45
2017-10-25T03:53:28.360Z,99573.10
2017-10-25T03:55:04.664Z,99618.30
2017-10-25T03:56:42.627Z,99652.91
2017-10-25T03:58:18.969Z,99674.09
2017-10-25T03:59:55.957Z,99681.70
2017-10-25T04:01:32.712Z,99674.05
2017-10-25T04:03:09.363Z,99654.16
2017-10-25T04:04:45.754Z,99667.88
2017-10-25T04:06:22.633Z,99646.16
2017-10-25T04:07:59.092Z,99682.09
2017-10-25T04:09:35.743Z,99721.05
2017-10-25T04:11:12.433Z,99737.45
2017-10-25T04:12:48.912Z,99743.16
2017-10-25T04:14:25.229Z,99732.09
2017-10-25T04:16:02.920Z,99739.23
2017-10-25T04:17:39.361Z,99733.76
2017-10-25T04:19:16.506Z,99736.58
2017-10-25T04:20:52.853Z,99686.09
2017-10-25T04:22:31.252Z,99760.47
2017-10-25T04:24:07.791Z,99810.14
2017-10-25T04:25:44.224Z,99820.38
2017-10-25T04:27:22.377Z,99834.48
2017-10-25T04:28:59.686Z,99835.41
2017-10-25T04:30:36.424Z,99806.62
2017-10-25T04:32:12.774Z,99855.39
2017-10-25T04:33:49.145Z,99843.84
2017-10-25T04:35:26.319Z,99825.22
2017-10-25T04:37:02.636Z,99827.05
2017-10-25T04:38:39.893Z,99795.52
2017-10-25T04:40:16.330Z,99818.20
2017-10-25T04:41:53.220Z,99798.14
2017-10-25T04:43:29.901Z,99785.72
2017-10-25T04:45:07.877Z,99791.08
2017-10-25T04:46:44.693Z,99770.19
2017-10-25T04:48:21.409Z,99755.55
2017-10-25T04:49:57.820Z,99702.85
2017-10-25T04:51:34.177Z,99655.95
2017-10-25T04:53:10.560Z,99679.01
2017-10-25T04:54:48.044Z,99632.86
2017-10-25T04:56:24.410Z,99691.76
2017-10-25T04:58:01.619Z,99738.80
2017-10-25T04:59:37.990Z,99750.69
2017-10-25T05:01:15.833Z,99737.88
2017-10-25T05:02:53.043Z,99718.78
2017-10-25T05:04:31.113Z,99665.13
2017-10-25T05:06:07.424Z,99648.95
2017-10-25T05:07:45.690Z,99709.11
2017-10-25T05:09:22.845Z,99705.55
2017-10-25T05:10:59.208Z,99726.31
2017-10-25T05:12:35.554Z,99698.80
2017-10-25T05:14:12.239Z,99604.50
2017-10-25T05:15:48.593Z,99616.59
2017-10-25T05:17:25.053Z,99655.52
2017-10-25T05:19:01.598Z,99656.81
2017-10-25T05:20:38.531Z,99668.74
2017-10-25T05:22:15.607Z,99670.05
2017-10-25T05:23:53.059Z,99636.77
2017-10-25T05:25:29.516Z,99605.84
2017-10-25T05:27:06.117Z,99656.81
2017-10-25T05:28:42.640Z,99675.92
2017-10-25T05:30:19.958Z,99712.64
2017-10-25T05:31:56.713Z,99725.88
2017-10-25T05:33:33.342Z,99736.09
2017-10-25T05:35:09.747Z,99742.72
2017-10-25T05:36:46.126Z,99731.18
2017-10-25T05:38:22.495Z,99713.48
2017-10-25T05:40:00.123Z,99708.16
2017-10-25T05:41:37.195Z,99703.72
2017-10-25T05:43:13.793Z,99704.11
2017-10-25T05:44:51.059Z,99662.17
2017-10-25T05:46:27.938Z,99658.55
2017-10-25T05:48:04.382Z,99640.42
2017-10-25T05:49:40.713Z,99615.98
2017-10-25T05:51:18.068Z,99613.77
2017-10-25T05:52:55.846Z,99658.20
2017-10-25T05:54:32.364Z,99674.53
2017-10-25T05:56:09.549Z,99646.64
2017-10-25T05:57:45.988Z,99634.20
2017-10-25T05:59:22.605Z,99636.47
2017-10-25T06:00:58.957Z,99652.42
2017-10-25T06:02:35.437Z,99621.77
2017-10-25T06:04:11.748Z,99640.47
2017-10-25T06:05:48.364Z,99644.38
2017-10-25T06:07:24.758Z,99619.08
2017-10-25T06:09:01.132Z,99575.71
2017-10-25T06:10:37.647Z,99524.80
2017-10-25T06:12:15.180Z,99478.03
2017-10-25T06:13:51.558Z,99442.14
2017-10-25T06:15:29.685Z,99462.91
2017-10-25T06:17:06.405Z,99531.53
2017-10-25T06:18:43.465Z,99557.06
2017-10-25T06:20:20.336Z,99543.88
2017-10-25T06:21:57.906Z,99581.02
2017-10-25T06:23:34.608Z,99531.97
2017-10-25T06:25:11.245Z,99496.11
2017-10-25T06:26:47.648Z,99481.02
2017-10-25T06:28:24.121Z,99466.34
2017-10-25T06:30:00.504Z,99458.43
2017-10-25T06:31:38.557Z,99444.78
2017-10-25T06:33:15.025Z,99484.03
2017-10-25T06:34:51.443Z,99456.25
2017-10-25T06:36:29.578Z,99394.30
2017-10-25T06:38:05.967Z,99352.77
2017-10-25T06:39:42.461Z,99367.32
2017-10-25T06:41:20.553Z,99411.98
2017-10-25T06:42:57.762Z,99403.08
2017-10-25T06:44:34.720Z,99416.41
2017-10-25T06:46:12.161Z,99416.84
2017-10-25T06:47:48.872Z,99363.80
2017-10-25T06:49:26.137Z,99367.80
2017-10-25T06:51:02.917Z,99341.66
2017-10-25T06:52:39.513Z,99373.63
2017-10-25T06:54:16.897Z,99354.55
2017-10-25T06:55:55.545Z,99381.92
2017-10-25T06:57:32.432Z,99456.65
2017-10-25T06:59:10.007Z,99444.27
2017-10-25T07:00:46.709Z,99345.65
2017-10-25T07:02:23.073Z,99368.14
2017-10-25T07:03:59.758Z,99359.38
2017-10-25T07:05:36.957Z,99406.77
2017-10-25T07:07:13.668Z,99488.94
2017-10-25T07:08:50.236Z,99495.59
2017-10-25T07:10:26.879Z,99502.11
2017-10-25T07:12:04.038Z,99494.15
2017-10-25T07:13:40.476Z,99438.44
2017-10-25T07:15:19.953Z,99377.80
2017-10-25T07:16:57.979Z,99364.62
2017-10-25T07:18:34.522Z,99356.69
2017-10-25T07:20:10.805Z,99376.27
2017-10-25T07:21:47.146Z,99317.72
2017-10-25T07:23:25.082Z,99323.55
2017-10-25T07:25:02.378Z,99357.16
2017-10-25T07:26:38.836Z,99361.11
2017-10-25T07:28:15.198Z,99382.00
2017-10-25T07:29:51.969Z,99370.84
2017-10-25T07:31:28.376Z,99340.78
2017-10-25T07:33:05.222Z,99339.48
2017-10-25T07:34:41.544Z,99449.99
2017-10-25T07:36:18.324Z,99495.55
2017-10-25T07:37:55.570Z,99588.45
2017-10-25T07:39:32.649Z,99473.89
2017-10-25T07:41:10.503Z,99439.88
2017-10-25T07:42:47.231Z,99446.48
2017-10-25T07:44:25.456Z,99464.55
2017-10-25T07:46:02.485Z,99477.38
2017-10-25T07:47:38.962Z,99511.94
2017-10-25T07:49:15.709Z,99573.41
2017-10-25T07:50:52.338Z,99589.76
2017-10-25T07:52:28.861Z,99653.20
2017-10-25T07:54:05.606Z,99636.33
2017-10-25T07:55:42.288Z,99671.39
2017-10-25T07:57:18.855Z,99708.52
2017-10-25T07:58:56.274Z,99685.93
2017-10-25T08:00:34.471Z,99708.08
2017-10-25T08:02:11.629Z,99724.05
2017-10-25T08:03:48.014Z,99680.10
2017-10-25T08:05:24.610Z,99708.08
2017-10-25T08:07:01.029Z,99715.95
2017-10-25T08:08:37.761Z,99639.47
2017-10-25T08:10:14.196Z,99600.93
2017-10-25T08:11:50.574Z,99603.47
2017-10-25T08:13:27.427Z,99572.10
2017-10-25T08:15:05.144Z,99515.93
2017-10-25T08:16:41.869Z,99614.59
2017-10-25T08:18:18.777Z,99707.17
2017-10-25T08:19:55.905Z,99695.20
2017-10-25T08:21:32.613Z,99737.76
2017-10-25T08:23:09.745Z,99748.77
2017-10-25T08:24:46.088Z,99732.41
2017-10-25T08:26:23.438Z,99698.72
2017-10-25T08:28:00.889Z,99700.55
2017-10-25T08:29:37.446Z,99737.76
2017-10-25T08:31:14.343Z,99684.06
2017-10-25T08:32:51.172Z,99721.35
2017-10-25T08:34:28.976Z,99724.88
2017-10-25T08:36:05.771Z,99711.56
2017-10-25T08:37:42.207Z,99720.44
2017-10-25T08:39:19.603Z,99680.58
2017-10-25T08:40:56.299Z,99686.75
2017-10-25T08:42:32.854Z,99604.77
2017-10-25T08:44:09.359Z,99653.16
2017-10-25T08:45:46.957Z,99673.05
2017-10-25T08:47:23.773Z,99683.67
2017-10-25T08:49:00.092Z,99628.81
2017-10-25T08:50:37.034Z,99533.15
2017-10-25T08:52:13.768Z,99482.37
2017-10-25T08:53:50.618Z,99426.58
2017-10-25T08:55:27.320Z,99541.06
2017-10-25T08:57:05.397Z,99614.59
2017-10-25T08:58:41.936Z,99553.45
2017-10-25T09:00:21.379Z,99549.41
2017-10-25T09:01:58.783Z,99399.95
2017-10-25T09:03:35.545Z,99526.09
2017-10-25T09:05:12.146Z,99622.11
2017-10-25T09:06:49.013Z,99644.69
2017-10-25T09:08:25.996Z,99734.94
2017-10-25T09:10:02.555Z,99705.78
2017-10-25T09:11:39.052Z,99775.80
2017-10-25T09:13:15.945Z,99708.78
2017-10-25T09:14:52.421Z,99757.61
2017-10-25T09:16:29.995Z,99726.58
2017-10-25T09:18:06.566Z,99758.52
2017-10-25T09:19:43.171Z,99778.38
2017-10-25T09:21:20.497Z,99614.55
2017-10-25T09:22:57.609Z,99514.06
2017-10-25T09:24:34.300Z,99507.02
2017-10-25T09:26:11.136Z,99445.08
2017-10-25T09:27:47.790Z,99430.02
2017-10-25T09:29:24.292Z,99483.55
2017-10-25T09:31:01.492Z,99548.50
2017-10-25T09:32:39.299Z,99431.31
2017-10-25T09:34:16.805Z,99442.34
2017-10-25T09:35:53.363Z,99452.09
2017-10-25T09:37:29.919Z,99569.31
2017-10-25T09:39:08.107Z,99548.45
2017-10-25T09:40:45.565Z,99500.77
2017-10-25T09:42:22.072Z,99559.14
2017-10-25T09:43:58.501Z,99556.02
2017-10-25T09:45:35.324Z,99595.38
2017-10-25T09:47:11.950Z,99427.27
2017-10-25T09:48:48.409Z,99325.76
2017-10-25T09:50:24.849Z,99482.20
2017-10-25T09:52:02.390Z,99530.84
2017-10-25T09:53:38.754Z,99624.25
2017-10-25T09:55:15.261Z,99639.17
2017-10-25T09:56:59.472Z,99502.89
2017-10-25T09:58:36.321Z,99525.50
2017-10-25T10:00:12.782Z,99598.89
2017-10-25T10:01:51.752Z,99645.86
2017-10-25T10:03:28.244Z,99701.20
2017-10-25T10:05:04.580Z,99736.72
2017-10-25T10:06:41.080Z,99654.34
2017-10-25T10:08:17.856Z,99687.11
2017-10-25T10:10:04.163Z,99785.47
2017-10-25T10:11:42.335Z,99813.77
2017-10-25T10:13:19.127Z,99776.16
2017-10-25T10:15:00.612Z,99636.20
2017-10-25T10:16:45.298Z,99788.17
2017-10-25T10:18:29.959Z,99906.89
2017-10-25T10:20:07.117Z,100071.55
2017-10-25T10:21:44.370Z,100021.92
2017-10-25T10:23:21.070Z,100061.74
2017-10-25T10:25:03.072Z,99937.75
2017-10-25T10:26:39.873Z,99819.96
2017-10-25T10:28:26.238Z,99810.68
2017-10-25T10:30:02.718Z,99832.80
2017-10-25T10:31:43.290Z,99852.31
2017-10-25T10:33:20.827Z,99820.40
2017-10-25T10:34:57.385Z,99726.88
2017-10-25T10:36:34.048Z,99737.11
2017-10-25T10:38:10.843Z,99765.48
2017-10-25T10:39:48.141Z,99749.43
2017-10-25T10:41:24.506Z,99558.53
2017-10-25T10:43:01.170Z,99627.24
2017-10-25T10:44:38.847Z,99486.50
2017-10-25T10:46:16.221Z,99501.98
2017-10-25T10:47:56.443Z,99595.72
2017-10-25T10:49:32.860Z,99584.28
2017-10-25T10:51:09.703Z,99685.59
2017-10-25T10:52:46.139Z,99713.05
2017-10-25T10:55:56.377Z,99713.97
2017-10-25T10:57:33.732Z,99652.00
2017-10-25T10:59:10.298Z,99645.30
2017-10-25T11:00:47.176Z,99509.38
2017-10-25T11:02:23.722Z,99576.23
2017-10-25T11:04:01.726Z,99612.11
2017-10-25T11:05:38.317Z,99755.61
2017-10-25T11:07:18.166Z,99736.98
2017-10-25T11:08:56.920Z,99740.08
2017-10-25T11:10:36.060Z,99711.70
2017-10-25T11:12:12.678Z,99864.17
2017-10-25T11:13:55.751Z,99946.20
2017-10-25T11:15:34.084Z,99868.53
2017-10-25T11:17:14.172Z,99793.66
2017-10-25T11:18:50.961Z,99767.94
2017-10-25T11:20:27.484Z,99821.19
2017-10-25T11:22:03.936Z,99864.08
2017-10-25T11:23:41.137Z,99796.23
2017-10-25T11:25:18.682Z,99816.78
2017-10-25T11:26:56.962Z,99797.58
2017-10-25T11:28:33.667Z,99802.06
2017-10-25T11:30:11.506Z,99904.38
2017-10-25T11:31:54.259Z,99914.62
2017-10-25T11:33:31.004Z,99846.83
2017-10-25T11:35:08.157Z,99892.44
2017-10-25T11:38:16.980Z,100054.95
2017-10-25T11:39:53.510Z,100039.30
2017-10-25T11:41:30.200Z,99928.27
2017-10-25T11:43:07.901Z,99928.30
2017-10-25T11:44:44.896Z,99885.73
2017-10-25T11:46:22.297Z,99927.88
2017-10-25T11:47:58.686Z,99954.87
2017-10-25T11:49:36.559Z,99841.87
2017-10-25T11:51:13.224Z,99780.70
2017-10-25T11:52:49.878Z,99746.12
2017-10-25T11:54:26.380Z,99653.09
2017-10-25T11:56:03.383Z,99527.37
2017-10-25T11:57:39.855Z,99430.48
2017-10-25T11:59:16.565Z,99530.84
2017-10-25T12:00:53.983Z,99531.71
2017-10-25T12:02:30.857Z,99653.05
2017-10-25T12:04:07.205Z,99704.39
2017-10-25T12:05:43.750Z,99657.44
2017-10-25T12:07:21.302Z,99779.70
2017-10-25T12:08:57.986Z,99848.37
2017-10-25T12:10:34.496Z,99683.11
2017-10-25T12:12:13.022Z,99578.62
2017-10-25T12:13:51.399Z,99718.50
2017-10-25T12:15:30.203Z,99705.27
2017-10-25T12:17:09.058Z,99591.84
2017-10-25T12:18:46.137Z,99703.39
2017-10-25T12:20:23.491Z,99737.52
2017-10-25T12:22:02.832Z,99676.80
2017-10-25T12:23:40.360Z,99618.33
2017-10-25T12:25:16.929Z,99557.63
2017-10-25T12:26:53.456Z,99534.19
2017-10-25T12:28:30.935Z,99519.67
2017-10-25T12:30:07.472Z,99549.27
2017-10-25T12:31:43.967Z,99520.93
2017-10-25T12:33:20.904Z,99440.78
2017-10-25T12:34:58.825Z,99369.66
2017-10-25T12:36:35.421Z,99349.33
2017-10-25T12:38:12.782Z,99431.96
2017-10-25T12:39:49.536Z,99527.09
2017-10-25T12:41:26.382Z,99431.96
2017-10-25T12:43:02.849Z,99548.36
2017-10-25T12:44:39.383Z,99477.55
2017-10-25T12:46:16.492Z,99466.98
2017-10-25T12:47:53.114Z,99451.82
2017-10-25T12:49:30.008Z,99528.80
2017-10-25T12:51:06.821Z,99624.38
2017-10-25T12:52:43.542Z,99746.27
2017-10-25T12:54:21.505Z,99830.83
2017-10-25T12:55:57.990Z,99787.41
2017-10-25T12:57:34.523Z,99767.94
2017-10-25T12:59:11.334Z,99825.16
2017-10-25T13:00:49.264Z,99862.70
2017-10-25T13:02:25.930Z,99903.92
2017-10-25T13:04:02.586Z,99889.84
2017-10-25T13:05:39.409Z,99922.17
2017-10-25T13:07:16.356Z,99821.47
2017-10-25T13:08:52.929Z,99753.67
2017-10-25T13:11:14.781Z,99765.68
2017-10-25T13:12:57.640Z,99737.30
2017-10-25T13:16:20.257Z,99712.14
2017-10-25T13:18:14.002Z,99704.57
2017-10-25T13:19:53.309Z,99781.19
2017-10-25T13:21:29.849Z,99839.14
2017-10-25T13:23:06.510Z,99864.45
2017-10-25T13:24:43.368Z,99858.70
2017-10-25T13:26:20.694Z,99789.06
2017-10-25T13:27:59.525Z,99703.18
2017-10-25T13:29:36.433Z,99822.77
2017-10-25T13:31:16.249Z,99796.52
2017-10-25T13:32:54.094Z,99752.28
2017-10-25T13:34:32.095Z,99663.63
2017-10-25T13:36:08.758Z,99593.28
2017-10-25T13:37:45.302Z,99565.45
2017-10-25T13:39:23.827Z,99489.76
2017-10-25T13:41:00.420Z,99544.59
2017-10-25T13:42:37.151Z,99636.13
2017-10-25T13:45:59.702Z,99715.53
2017-10-25T13:47:37.326Z,99759.89
2017-10-25T13:49:14.131Z,99788.50
2017-10-25T13:50:50.759Z,99738.99
2017-10-25T13:52:27.587Z,99624.64
2017-10-25T13:54:04.153Z,99562.28
2017-10-25T13:55:40.665Z,99572.92
2017-10-25T13:57:17.958Z,99510.76
2017-10-25T13:58:55.066Z,99431.30
2017-10-25T14:00:31.726Z,99434.48
2017-10-25T14:02:08.268Z,99399.02
2017-10-25T14:03:44.930Z,99436.56
2017-10-25T14:05:22.681Z,99501.48
2017-10-25T14:06:59.797Z,99566.14
2017-10-25T14:08:37.224Z,99618.38
2017-10-25T14:10:13.756Z,99581.63
2017-10-25T14:11:50.779Z,99550.71
2017-10-25T14:13:28.551Z,99408.58
2017-10-25T14:15:05.168Z,99340.59
2017-10-25T14:16:46.480Z,99291.09
2017-10-25T14:18:24.370Z,99362.18
2017-10-25T14:20:02.452Z,99404.63
2017-10-25T14:21:40.382Z,99333.55
2017-10-25T14:23:17.647Z,99436.91
2017-10-25T14:24:55.055Z,99374.16
2017-10-25T14:28:55.002Z,99459.59
2017-10-25T14:30:32.415Z,99330.30
2017-10-25T14:32:09.033Z,99250.83
2017-10-25T14:33:47.539Z,99237.03
2017-10-25T14:35:24.688Z,99268.08
2017-10-25T14:37:01.779Z,99259.61
2017-10-25T14:38:40.224Z,99305.16
2017-10-25T14:40:17.033Z,99336.46
2017-10-25T14:41:53.801Z,99377.56
2017-10-25T14:43:35.280Z,99443.95
2017-10-25T14:45:12.297Z,99404.10
2017-10-25T14:46:49.817Z,99281.70
2017-10-25T14:48:28.233Z,99285.27
2017-10-25T14:50:06.439Z,99388.59
2017-10-25T14:51:43.528Z,99383.81
2017-10-25T14:53:20.283Z,99355.53
2017-10-25T14:54:57.706Z,99406.75
2017-10-25T14:56:35.265Z,99437.78
2017-10-25T14:58:13.616Z,99470.11
2017-10-25T14:59:50.185Z,99472.28
2017-10-25T15:01:27.173Z,99311.32
2017-10-25T15:03:04.500Z,99354.09
2017-10-25T15:04:41.641Z,99482.46
2017-10-25T15:06:19.920Z,99525.23
2017-10-25T15:07:57.523Z,99449.64
2017-10-25T15:09:36.482Z,99280.41
2017-10-25T15:11:14.850Z,99249.05
2017-10-25T15:12:52.126Z,99175.16
2017-10-25T15:14:31.385Z,99277.23
2017-10-25T15:16:09.674Z,99338.20
2017-10-25T15:17:46.446Z,99290.91
2017-10-25T15:19:26.822Z,99245.54
2017-10-25T15:21:05.335Z,99274.11
2017-10-25T15:22:44.904Z,99280.36
2017-10-25T15:24:21.887Z,99327.99
2017-10-25T15:26:00.097Z,99294.08
2017-10-25T15:27:38.111Z,99222.80
2017-10-25T15:29:16.092Z,99137.62
2017-10-25T15:30:56.596Z,99193.70
2017-10-25T15:32:33.513Z,99294.94
2017-10-25T15:34:14.354Z,99230.30
2017-10-25T15:35:51.963Z,99172.11
2017-10-25T15:37:29.546Z,99139.30
2017-10-25T15:39:07.860Z,99121.18
2017-10-25T15:40:44.581Z,99136.23
2017-10-25T15:42:21.306Z,99188.37
2017-10-25T15:44:00.106Z,99264.86
2017-10-25T15:45:38.462Z,99208.20
2017-10-25T15:47:17.241Z,99260.09
2017-10-25T15:48:55.320Z,99293.12
2017-10-25T15:50:32.044Z,99266.68
2017-10-25T15:52:08.698Z,99236.94
2017-10-25T15:53:46.735Z,99209.55
2017-10-25T15:55:24.675Z,99052.44
2017-10-25T15:57:01.507Z,99123.00
2017-10-25T15:58:38.039Z,99203.83
2017-10-25T16:00:18.051Z,99224.14
2017-10-25T16:01:55.109Z,99264.99
2017-10-25T16:03:31.618Z,99273.32
2017-10-25T16:05:09.369Z,99186.69
2017-10-25T16:06:46.401Z,99265.38
2017-10-25T16:08:23.351Z,99328.52
2017-10-25T16:10:01.101Z,99360.40
2017-10-25T16:11:37.590Z,99369.64
2017-10-25T16:13:14.620Z,99362.61
2017-10-25T16:14:51.530Z,99382.42
2017-10-25T16:16:29.085Z,99350.10
2017-10-25T16:18:06.374Z,99274.59
2017-10-25T16:19:43.179Z,99114.72
2017-10-25T16:21:20.701Z,99006.18
2017-10-25T16:22:57.439Z,99110.30
2017-10-25T16:24:35.367Z,99044.98
2017-10-25T16:26:14.932Z,98973.53
2017-10-25T16:27:52.190Z,98871.33
2017-10-25T16:29:30.066Z,98775.58
2017-10-25T16:31:07.696Z,98798.09
2017-10-25T16:32:44.748Z,98981.95
2017-10-25T16:34:21.854Z,99084.66
2017-10-25T16:35:58.803Z,99147.04
2017-10-25T16:37:38.873Z,99222.05
2017-10-25T16:39:16.768Z,99227.88
2017-10-25T16:40:55.885Z,99178.89
2017-10-25T16:42:34.587Z,99254.92
2017-10-25T16:44:12.376Z,99355.53
2017-10-25T16:45:49.703Z,99430.34
2017-10-25T16:47:26.967Z,99391.33
2017-10-25T16:49:05.761Z,99451.55
2017-10-25T16:50:48.452Z,99471.94
2017-10-25T16:52:28.467Z,99471.89
2017-10-25T16:54:07.796Z,99356.53
2017-10-25T16:55:44.610Z,99359.58
2017-10-25T16:57:25.453Z,99444.99
2017-10-25T16:59:03.573Z,99565.36
2017-10-25T17:00:43.322Z,99602.11
2017-10-25T17:02:23.628Z,99625.03
2017-10-25T17:04:03.333Z,99627.34
2017-10-25T17:05:42.702Z,99576.49
2017-10-25T17:07:23.189Z,99580.45
2017-10-25T17:09:03.409Z,99438.42
2017-10-25T17:10:42.421Z,99306.67
2017-10-25T17:12:20.287Z,99265.16
2017-10-25T17:14:00.646Z,99395.07
2017-10-25T17:15:41.366Z,99460.59
2017-10-25T17:17:25.209Z,99521.70
2017-10-25T17:19:04.412Z,99592.92
2017-10-25T17:20:45.269Z,99481.38
2017-10-25T17:22:22.436Z,99310.19
2017-10-25T17:24:05.207Z,99224.88
2017-10-25T17:25:47.626Z,99370.36
2017-10-25T17:27:29.508Z,99373.39
2017-10-25T17:29:09.208Z,99391.59
2017-10-25T17:30:47.014Z,99244.98
2017-10-25T17:32:28.996Z,99331.52
2017-10-25T17:34:08.328Z,99450.47
2017-10-25T17:35:50.713Z,99451.73
2017-10-25T17:37:30.202Z,99365.88
2017-10-25T17:39:10.753Z,99254.67
2017-10-25T17:40:51.148Z,99275.86
2017-10-25T17:42:32.429Z,99243.59
2017-10-25T17:44:16.043Z,99304.08
2017-10-25T17:45:58.173Z,99366.79
2017-10-25T17:47:39.218Z,99399.98
2017-10-25T17:49:21.099Z,99342.98
2017-10-25T17:51:09.358Z,99435.48
2017-10-25T17:52:51.504Z,99454.91
2017-10-25T17:54:33.481Z,99356.23
2017-10-25T17:56:14.225Z,99231.23
2017-10-25T17:57:55.830Z,99142.88
2017-10-25T17:59:36.995Z,99206.88
2017-10-25T18:01:18.263Z,99299.77
2017-10-25T18:03:03.863Z,99301.47
2017-10-25T18:04:45.264Z,99335.08
2017-10-25T18:06:26.321Z,99330.27
2017-10-25T18:08:08.940Z,99348.45
2017-10-25T18:09:49.947Z,99272.81
2017-10-25T18:11:32.768Z,99279.03
2017-10-25T18:13:13.823Z,99300.17
2017-10-25T18:14:58.425Z,99311.33
2017-10-25T18:16:40.097Z,99390.38
2017-10-25T18:18:22.576Z,99378.44
2017-10-25T18:20:03.287Z,99531.02
2017-10-25T18:21:45.648Z,99560.77
2017-10-25T18:23:28.000Z,99560.23
2017-10-25T18:25:11.484Z,99516.93
2017-10-25T18:26:53.553Z,99393.89
2017-10-25T18:28:35.131Z,99261.45
2017-10-25T18:30:17.253Z,99317.06
2017-10-25T18:32:00.564Z,99450.98
2017-10-25T18:33:43.065Z,99458.08
2017-10-25T18:35:28.294Z,99547.11
2017-10-25T18:37:09.594Z,99409.80
2017-10-25T18:38:54.855Z,99394.38
2017-10-25T18:40:38.641Z,99495.67
2017-10-25T18:42:20.211Z,99485.98
2017-10-25T18:44:03.160Z,99528.88
2017-10-25T18:45:46.147Z,99469.64
2017-10-25T18:49:11.026Z,99450.47
2017-10-25T18:50:57.349Z,99470.94
2017-10-25T18:52:39.151Z,99455.03
2017-10-25T18:54:26.305Z,99472.24
2017-10-25T18:56:09.722Z,99431.09
2017-10-25T18:57:51.988Z,99309.94
2017-10-25T18:59:35.487Z,99228.37
2017-10-25T19:01:17.028Z,99307.34
2017-10-25T19:03:00.573Z,99390.95
2017-10-25T19:04:41.982Z,99412.53
2017-10-25T19:06:27.823Z,99204.77
2017-10-25T19:08:14.351Z,99165.97
2017-10-25T19:09:57.090Z,99181.03
2017-10-25T19:11:38.246Z,99270.73
2017-10-25T19:13:21.945Z,99313.07
2017-10-25T19:15:04.321Z,99343.64
2017-10-25T19:16:46.737Z,99401.98
2017-10-25T19:18:30.795Z,99396.63
2017-10-25T19:20:12.585Z,99384.26
2017-10-25T19:21:55.094Z,99364.80
2017-10-25T19:23:37.461Z,99392.30
2017-10-25T19:25:23.653Z,99430.34